Other Surface Observations
Issued by NWS Missoula, MT

Home | Current Version | Previous Version | Text Only | Print | Product List | Glossary On
Versions: 1 2 3 4 5 6 7 8 9 10 11 12 13 14 15 16 17 18 19 20 21 22 23 24 25 26 27 28 29 30 31 32 33 34 35 36 37 38 39 40 41 42 43 44 45 46 47 48 49 50
000
SXUS55 KMSO 060243
OSOMSO
MONTANA AWOS SUMMARY
NATIONAL WEATHER SERVICE MISSOULA MT
843 PM MDT TUE MAY 5 2015

Montana AWOS Reports

LAUREL      |K6S8 060235Z AUTO 14004KT 40SM 16/07 A2973 RMK AO1 T01610067
TWIN BRIDGES|K7S1 060235Z AUTO 36007KT 40SM 12/05 A2982 RMK AO1 T01170050
ROUNDUP     |KRPX 060235Z AUTO 00000KT 40SM 16/07 A2965 RMK AO1 T01610072
MALTA       |KM75 060235Z AUTO 29010KT 40SM 20/05 A2963 RMK AO1 T02000050




USA.gov is the U.S. government's official web portal to all federal, state and local government web resources and services.